Nearby METAR Reports

 

KMHT - Manchester, New Hampshire, USA
Distance from station: W 16mi, 26km
Updated: Thu, 24-May-2018 6:53am EDT
Few Clouds
Few Clouds
 Wind from N
Wind: N 3 mph , 6 km/h
Temperature: 57°F , 14°C
Dew Point: 52°F , 11°C
Humidity: 82%
Barometer: 30.06 inHg , 1017.9 hPa
Clouds: Few Clouds
Visibility: 10 miles , 16 km
Cloud details: Few Clouds 25000 ft
2018/05/24 10:53 KMHT 241053Z 36003KT 10SM FEW250 14/11 A3006 RMK AO2 SLP191 T01440106
KPSM - Portsmouth/Pease, New Hampshire, USA
Distance from station: ENE 17mi, 27km
Updated: Wed, 31-Dec-1969 7:00pm EST
NOT Current
unable to load KPSM data RC=404 Not Found
unable to load KPSM data RC=404 Not Found
 
 
KASH - Nashua/Boire Fld, New Hampshire, USA
Distance from station: WSW 24mi, 38km
Updated: Thu, 24-May-2018 6:56am EDT
Clear
Clear
 Wind from NW
Wind: NW 5 mph , 7 km/h
Temperature: 54°F , 12°C
Dew Point: 52°F , 11°C
Humidity: 94%
Barometer: 30.08 inHg , 1018.6 hPa
Clouds: Clear
Visibility: 10 miles , 16 km
2018/05/24 10:56 KASH 241056Z 31004KT 10SM CLR 12/11 A3008 RMK AO2 SLP196 T01220111
KDAW - Rochester, New Hampshire, USA
Distance from station: NNE 24mi, 39km
Updated: Thu, 24-May-2018 6:51am EDT
Clear
Clear
 Wind from calm
Wind: Calm
Temperature: 52°F , 11°C
Dew Point: 50°F , 10°C
Humidity: 94%
Barometer: 30.07 inHg , 1018.3 hPa
Clouds: Clear
Visibility: 10 miles , 16 km
2018/05/24 10:51 KDAW 241051Z AUTO 00000KT 10SM CLR 11/10 A3007 RMK AO2 SLP180 T01110100